sensor_id;sensor_type;location;lat;lon;timestamp;temperature;humidity
15231;DHT22;32569;51.762;8.564;2023-05-02T00:00:41;12.90;99.90
15231;DHT22;32569;51.762;8.564;2023-05-02T00:03:09;12.80;99.90
15231;DHT22;32569;51.762;8.564;2023-05-02T00:05:37;12.80;99.90
15231;DHT22;32569;51.762;8.564;2023-05-02T00:08:05;12.70;99.90
15231;DHT22;32569;51.762;8.564;2023-05-02T00:10:32;12.60;99.90
15231;DHT22;32569;51.762;8.564;2023-05-02T00:12:58;12.60;99.90
15231;DHT22;32569;51.762;8.564;2023-05-02T00:15:25;12.70;99.90
15231;DHT22;32569;51.762;8.564;2023-05-02T00:17:52;12.50;99.90
15231;DHT22;32569;51.762;8.564;2023-05-02T00:20:19;12.60;99.90
15231;DHT22;32569;51.762;8.564;2023-05-02T00:22:45;12.60;99.90
15231;DHT22;32569;51.762;8.564;2023-05-02T00:25:13;12.60;99.90
15231;DHT22;32569;51.762;8.564;2023-05-02T00:27:41;12.50;99.90
15231;DHT22;32569;51.762;8.564;2023-05-02T00:30:08;12.50;99.90
15231;DHT22;32569;51.762;8.564;2023-05-02T00:32:35;12.60;99.90
15231;DHT22;32569;51.762;8.564;2023-05-02T00:35:05;12.60;99.90
15231;DHT22;32569;51.762;8.564;2023-05-02T00:37:32;12.50;99.90
15231;DHT22;32569;51.762;8.564;2023-05-02T00:39:59;12.60;99.90
15231;DHT22;32569;51.762;8.564;2023-05-02T00:42:27;12.60;99.90
15231;DHT22;32569;51.762;8.564;2023-05-02T00:44:55;12.50;99.90
15231;DHT22;32569;51.762;8.564;2023-05-02T00:47:22;12.40;99.90
15231;DHT22;32569;51.762;8.564;2023-05-02T00:49:49;12.50;99.90
15231;DHT22;32569;51.762;8.564;2023-05-02T00:52:21;12.20;99.90
15231;DHT22;32569;51.762;8.564;2023-05-02T00:54:48;12.30;99.90
15231;DHT22;32569;51.762;8.564;2023-05-02T00:57:15;12.30;99.90
15231;DHT22;32569;51.762;8.564;2023-05-02T00:59:43;12.30;99.90
15231;DHT22;32569;51.762;8.564;2023-05-02T01:02:17;12.30;99.90
15231;DHT22;32569;51.762;8.564;2023-05-02T01:04:53;12.30;99.90
15231;DHT22;32569;51.762;8.564;2023-05-02T01:10:30;12.30;99.90
15231;DHT22;32569;51.762;8.564;2023-05-02T01:13:02;12.20;99.90
15231;DHT22;32569;51.762;8.564;2023-05-02T01:15:39;12.20;99.90
15231;DHT22;32569;51.762;8.564;2023-05-02T01:18:08;12.20;99.90
15231;DHT22;32569;51.762;8.564;2023-05-02T01:20:38;12.20;99.90
15231;DHT22;32569;51.762;8.564;2023-05-02T01:23:16;12.20;99.90
15231;DHT22;32569;51.762;8.564;2023-05-02T01:25:59;12.10;99.90
15231;DHT22;32569;51.762;8.564;2023-05-02T01:28:35;12.20;99.90
15231;DHT22;32569;51.762;8.564;2023-05-02T01:31:10;12.10;99.90
15231;DHT22;32569;51.762;8.564;2023-05-02T01:33:38;12.10;99.90
15231;DHT22;32569;51.762;8.564;2023-05-02T01:36:06;12.10;99.90
15231;DHT22;32569;51.762;8.564;2023-05-02T01:38:34;12.20;99.90
15231;DHT22;32569;51.762;8.564;2023-05-02T01:41:02;12.20;99.90
15231;DHT22;32569;51.762;8.564;2023-05-02T01:43:32;12.20;99.90
15231;DHT22;32569;51.762;8.564;2023-05-02T01:46:01;12.10;99.90
15231;DHT22;32569;51.762;8.564;2023-05-02T01:48:30;12.10;99.90
15231;DHT22;32569;51.762;8.564;2023-05-02T01:50:58;12.10;99.90
15231;DHT22;32569;51.762;8.564;2023-05-02T01:53:25;12.10;99.90
15231;DHT22;32569;51.762;8.564;2023-05-02T01:55:54;12.10;99.90
15231;DHT22;32569;51.762;8.564;2023-05-02T01:58:23;12.10;99.90
15231;DHT22;32569;51.762;8.564;2023-05-02T02:00:53;12.10;99.90
15231;DHT22;32569;51.762;8.564;2023-05-02T02:03:21;12.10;99.90
15231;DHT22;32569;51.762;8.564;2023-05-02T02:05:50;12.00;99.90
15231;DHT22;32569;51.762;8.564;2023-05-02T02:08:18;12.00;99.90
15231;DHT22;32569;51.762;8.564;2023-05-02T02:10:48;12.00;99.90
15231;DHT22;32569;51.762;8.564;2023-05-02T02:13:17;12.00;99.90
15231;DHT22;32569;51.762;8.564;2023-05-02T02:15:46;12.00;99.90
15231;DHT22;32569;51.762;8.564;2023-05-02T02:18:17;12.00;99.90
15231;DHT22;32569;51.762;8.564;2023-05-02T02:20:46;12.00;99.90
15231;DHT22;32569;51.762;8.564;2023-05-02T02:23:15;12.00;99.90
15231;DHT22;32569;51.762;8.564;2023-05-02T02:25:43;11.90;99.90
15231;DHT22;32569;51.762;8.564;2023-05-02T02:28:10;11.90;99.90
15231;DHT22;32569;51.762;8.564;2023-05-02T02:30:37;12.00;99.90
15231;DHT22;32569;51.762;8.564;2023-05-02T02:33:03;12.00;99.90
15231;DHT22;32569;51.762;8.564;2023-05-02T02:35:34;12.00;99.90
15231;DHT22;32569;51.762;8.564;2023-05-02T02:38:09;12.00;99.90
15231;DHT22;32569;51.762;8.564;2023-05-02T02:40:43;11.80;99.90
15231;DHT22;32569;51.762;8.564;2023-05-02T02:43:16;11.80;99.90
15231;DHT22;32569;51.762;8.564;2023-05-02T02:45:49;11.80;99.90
15231;DHT22;32569;51.762;8.564;2023-05-02T02:48:28;11.90;99.90
15231;DHT22;32569;51.762;8.564;2023-05-02T02:51:06;11.90;99.90
15231;DHT22;32569;51.762;8.564;2023-05-02T02:53:49;11.80;99.90
15231;DHT22;32569;51.762;8.564;2023-05-02T02:56:26;11.80;99.90
15231;DHT22;32569;51.762;8.564;2023-05-02T02:58:56;11.80;99.90
15231;DHT22;32569;51.762;8.564;2023-05-02T03:01:27;11.60;99.90
15231;DHT22;32569;51.762;8.564;2023-05-02T03:03:57;11.50;99.90
15231;DHT22;32569;51.762;8.564;2023-05-02T03:06:24;11.60;99.90
15231;DHT22;32569;51.762;8.564;2023-05-02T03:08:54;11.40;99.90
15231;DHT22;32569;51.762;8.564;2023-05-02T03:11:22;11.40;99.90
15231;DHT22;32569;51.762;8.564;2023-05-02T03:13:49;11.30;99.90
15231;DHT22;32569;51.762;8.564;2023-05-02T03:16:36;11.40;99.90
15231;DHT22;32569;51.762;8.564;2023-05-02T03:19:04;11.30;99.90
15231;DHT22;32569;51.762;8.564;2023-05-02T03:21:31;11.40;99.90
15231;DHT22;32569;51.762;8.564;2023-05-02T03:23:58;11.40;99.90
15231;DHT22;32569;51.762;8.564;2023-05-02T03:26:27;11.60;99.90
15231;DHT22;32569;51.762;8.564;2023-05-02T03:28:54;11.60;99.90
15231;DHT22;32569;51.762;8.564;2023-05-02T03:31:21;11.50;99.90
15231;DHT22;32569;51.762;8.564;2023-05-02T03:33:48;11.40;99.90
15231;DHT22;32569;51.762;8.564;2023-05-02T03:36:15;11.40;99.90
15231;DHT22;32569;51.762;8.564;2023-05-02T03:38:42;11.50;99.90
15231;DHT22;32569;51.762;8.564;2023-05-02T03:41:09;11.50;99.90
15231;DHT22;32569;51.762;8.564;2023-05-02T03:43:37;11.50;99.90
15231;DHT22;32569;51.762;8.564;2023-05-02T03:46:05;11.40;99.90
15231;DHT22;32569;51.762;8.564;2023-05-02T03:48:32;11.30;99.90
15231;DHT22;32569;51.762;8.564;2023-05-02T03:50:59;11.40;99.90
15231;DHT22;32569;51.762;8.564;2023-05-02T03:53:26;11.40;99.90
15231;DHT22;32569;51.762;8.564;2023-05-02T03:55:52;11.40;99.90
15231;DHT22;32569;51.762;8.564;2023-05-02T03:58:19;11.30;99.90
15231;DHT22;32569;51.762;8.564;2023-05-02T04:00:47;11.30;99.90
15231;DHT22;32569;51.762;8.564;2023-05-02T04:03:14;11.30;99.90
15231;DHT22;32569;51.762;8.564;2023-05-02T04:05:41;11.40;99.90
15231;DHT22;32569;51.762;8.564;2023-05-02T04:08:08;11.40;99.90
15231;DHT22;32569;51.762;8.564;2023-05-02T04:10:35;11.40;99.90
15231;DHT22;32569;51.762;8.564;2023-05-02T04:13:02;11.30;99.90
15231;DHT22;32569;51.762;8.564;2023-05-02T04:15:29;11.20;99.90
15231;DHT22;32569;51.762;8.564;2023-05-02T04:17:58;11.20;99.90
15231;DHT22;32569;51.762;8.564;2023-05-02T04:20:24;11.30;99.90
15231;DHT22;32569;51.762;8.564;2023-05-02T04:22:51;11.30;99.90
15231;DHT22;32569;51.762;8.564;2023-05-02T04:25:18;11.30;99.90
15231;DHT22;32569;51.762;8.564;2023-05-02T04:27:44;11.40;99.90
15231;DHT22;32569;51.762;8.564;2023-05-02T04:30:11;11.40;99.90
15231;DHT22;32569;51.762;8.564;2023-05-02T04:32:39;11.30;99.90
15231;DHT22;32569;51.762;8.564;2023-05-02T04:35:07;11.30;99.90
15231;DHT22;32569;51.762;8.564;2023-05-02T04:37:35;11.20;99.90
15231;DHT22;32569;51.762;8.564;2023-05-02T04:40:02;11.30;99.90
15231;DHT22;32569;51.762;8.564;2023-05-02T04:42:29;11.30;99.90
15231;DHT22;32569;51.762;8.564;2023-05-02T04:44:55;11.30;99.90
15231;DHT22;32569;51.762;8.564;2023-05-02T04:47:22;11.30;99.90
15231;DHT22;32569;51.762;8.564;2023-05-02T04:49:48;11.30;99.90
15231;DHT22;32569;51.762;8.564;2023-05-02T04:52:16;11.40;99.90
15231;DHT22;32569;51.762;8.564;2023-05-02T04:54:50;11.30;99.90
15231;DHT22;32569;51.762;8.564;2023-05-02T04:57:16;11.40;99.90
15231;DHT22;32569;51.762;8.564;2023-05-02T04:59:43;11.40;99.90
15231;DHT22;32569;51.762;8.564;2023-05-02T05:02:10;11.40;99.90
15231;DHT22;32569;51.762;8.564;2023-05-02T05:04:37;11.40;99.90
15231;DHT22;32569;51.762;8.564;2023-05-02T05:07:05;11.40;99.90
15231;DHT22;32569;51.762;8.564;2023-05-02T05:09:33;11.30;99.90
15231;DHT22;32569;51.762;8.564;2023-05-02T05:12:00;11.40;99.90
15231;DHT22;32569;51.762;8.564;2023-05-02T05:14:27;11.20;99.90
15231;DHT22;32569;51.762;8.564;2023-05-02T05:16:55;11.20;99.90
15231;DHT22;32569;51.762;8.564;2023-05-02T05:19:24;11.30;99.90
15231;DHT22;32569;51.762;8.564;2023-05-02T05:21:53;11.30;99.90
15231;DHT22;32569;51.762;8.564;2023-05-02T05:24:20;11.40;99.90
15231;DHT22;32569;51.762;8.564;2023-05-02T05:26:48;11.40;99.90
15231;DHT22;32569;51.762;8.564;2023-05-02T05:29:15;11.20;99.90
15231;DHT22;32569;51.762;8.564;2023-05-02T05:31:42;11.10;99.90
15231;DHT22;32569;51.762;8.564;2023-05-02T05:34:09;11.00;99.90
15231;DHT22;32569;51.762;8.564;2023-05-02T05:36:35;11.00;99.90
15231;DHT22;32569;51.762;8.564;2023-05-02T05:39:02;11.00;99.90
15231;DHT22;32569;51.762;8.564;2023-05-02T05:41:29;11.10;99.90
15231;DHT22;32569;51.762;8.564;2023-05-02T05:44:04;11.10;99.90
15231;DHT22;32569;51.762;8.564;2023-05-02T05:46:30;11.20;99.90
15231;DHT22;32569;51.762;8.564;2023-05-02T05:48:57;11.10;99.90
15231;DHT22;32569;51.762;8.564;2023-05-02T05:51:24;11.00;99.90
15231;DHT22;32569;51.762;8.564;2023-05-02T05:53:52;11.10;99.90
15231;DHT22;32569;51.762;8.564;2023-05-02T05:56:18;11.10;99.90
15231;DHT22;32569;51.762;8.564;2023-05-02T05:58:46;11.10;99.90
15231;DHT22;32569;51.762;8.564;2023-05-02T06:01:14;11.10;99.90
15231;DHT22;32569;51.762;8.564;2023-05-02T06:03:41;11.20;99.90
15231;DHT22;32569;51.762;8.564;2023-05-02T06:06:07;11.20;99.90
15231;DHT22;32569;51.762;8.564;2023-05-02T06:08:34;11.20;99.90
15231;DHT22;32569;51.762;8.564;2023-05-02T06:11:00;11.20;99.90
15231;DHT22;32569;51.762;8.564;2023-05-02T06:13:27;11.10;99.90
15231;DHT22;32569;51.762;8.564;2023-05-02T06:15:54;10.90;99.90
15231;DHT22;32569;51.762;8.564;2023-05-02T06:18:21;10.80;99.90
15231;DHT22;32569;51.762;8.564;2023-05-02T06:20:48;10.70;99.90
15231;DHT22;32569;51.762;8.564;2023-05-02T06:23:15;10.60;99.90
15231;DHT22;32569;51.762;8.564;2023-05-02T06:25:41;10.50;99.90
15231;DHT22;32569;51.762;8.564;2023-05-02T06:28:08;10.60;99.90
15231;DHT22;32569;51.762;8.564;2023-05-02T06:30:35;10.60;99.90
15231;DHT22;32569;51.762;8.564;2023-05-02T06:33:03;10.70;99.90
15231;DHT22;32569;51.762;8.564;2023-05-02T06:35:31;10.70;99.90
15231;DHT22;32569;51.762;8.564;2023-05-02T06:38:00;10.80;99.90
15231;DHT22;32569;51.762;8.564;2023-05-02T06:40:27;10.80;99.90
15231;DHT22;32569;51.762;8.564;2023-05-02T06:42:54;10.90;99.90
15231;DHT22;32569;51.762;8.564;2023-05-02T06:45:21;11.00;99.90
15231;DHT22;32569;51.762;8.564;2023-05-02T06:47:47;11.10;99.90
15231;DHT22;32569;51.762;8.564;2023-05-02T06:50:15;11.20;99.90
15231;DHT22;32569;51.762;8.564;2023-05-02T06:52:42;11.30;99.90
15231;DHT22;32569;51.762;8.564;2023-05-02T06:55:09;11.40;99.90
15231;DHT22;32569;51.762;8.564;2023-05-02T06:57:36;11.30;99.90
15231;DHT22;32569;51.762;8.564;2023-05-02T07:00:03;11.40;99.90
15231;DHT22;32569;51.762;8.564;2023-05-02T07:02:30;11.30;99.90
15231;DHT22;32569;51.762;8.564;2023-05-02T07:04:56;11.40;99.90
15231;DHT22;32569;51.762;8.564;2023-05-02T07:07:23;11.50;99.90
15231;DHT22;32569;51.762;8.564;2023-05-02T07:09:51;11.50;99.90
15231;DHT22;32569;51.762;8.564;2023-05-02T07:12:17;11.50;99.90
15231;DHT22;32569;51.762;8.564;2023-05-02T07:14:45;11.20;99.90
15231;DHT22;32569;51.762;8.564;2023-05-02T07:17:12;10.90;99.90
15231;DHT22;32569;51.762;8.564;2023-05-02T07:19:38;10.60;99.90
15231;DHT22;32569;51.762;8.564;2023-05-02T07:22:08;10.40;99.90
15231;DHT22;32569;51.762;8.564;2023-05-02T07:24:39;10.20;99.90
15231;DHT22;32569;51.762;8.564;2023-05-02T07:27:11;10.10;99.90
15231;DHT22;32569;51.762;8.564;2023-05-02T07:29:39;10.20;99.90
15231;DHT22;32569;51.762;8.564;2023-05-02T07:32:06;10.20;99.90
15231;DHT22;32569;51.762;8.564;2023-05-02T07:34:36;10.20;99.90
15231;DHT22;32569;51.762;8.564;2023-05-02T07:37:03;10.30;99.90
15231;DHT22;32569;51.762;8.564;2023-05-02T07:39:32;10.50;99.90
15231;DHT22;32569;51.762;8.564;2023-05-02T07:41:58;10.70;99.90
15231;DHT22;32569;51.762;8.564;2023-05-02T07:44:27;10.90;99.90
15231;DHT22;32569;51.762;8.564;2023-05-02T07:46:53;10.80;99.90
15231;DHT22;32569;51.762;8.564;2023-05-02T07:49:20;10.90;99.90
15231;DHT22;32569;51.762;8.564;2023-05-02T07:51:46;10.70;99.90
15231;DHT22;32569;51.762;8.564;2023-05-02T07:54:16;10.60;99.90
15231;DHT22;32569;51.762;8.564;2023-05-02T07:56:44;10.60;99.90
15231;DHT22;32569;51.762;8.564;2023-05-02T07:59:10;10.40;99.90
15231;DHT22;32569;51.762;8.564;2023-05-02T08:01:38;10.20;99.90
15231;DHT22;32569;51.762;8.564;2023-05-02T08:04:05;10.20;99.90
15231;DHT22;32569;51.762;8.564;2023-05-02T08:06:32;10.00;99.90
15231;DHT22;32569;51.762;8.564;2023-05-02T08:08:59;9.90;99.90
15231;DHT22;32569;51.762;8.564;2023-05-02T08:11:25;9.90;99.90
15231;DHT22;32569;51.762;8.564;2023-05-02T08:13:52;9.70;99.90
15231;DHT22;32569;51.762;8.564;2023-05-02T08:16:19;9.80;99.90
15231;DHT22;32569;51.762;8.564;2023-05-02T08:18:50;9.80;99.90
15231;DHT22;32569;51.762;8.564;2023-05-02T08:21:16;9.70;99.90
15231;DHT22;32569;51.762;8.564;2023-05-02T08:23:46;9.70;99.90
15231;DHT22;32569;51.762;8.564;2023-05-02T08:26:13;9.90;99.90
15231;DHT22;32569;51.762;8.564;2023-05-02T08:28:40;10.00;99.90
15231;DHT22;32569;51.762;8.564;2023-05-02T08:31:07;10.10;99.90
15231;DHT22;32569;51.762;8.564;2023-05-02T08:33:36;10.20;99.90
15231;DHT22;32569;51.762;8.564;2023-05-02T08:36:11;10.20;99.90
15231;DHT22;32569;51.762;8.564;2023-05-02T08:38:38;10.30;99.90
15231;DHT22;32569;51.762;8.564;2023-05-02T08:41:11;10.10;99.90
15231;DHT22;32569;51.762;8.564;2023-05-02T08:43:38;10.10;99.90
15231;DHT22;32569;51.762;8.564;2023-05-02T08:46:06;10.10;99.90
15231;DHT22;32569;51.762;8.564;2023-05-02T08:48:34;10.20;99.90
15231;DHT22;32569;51.762;8.564;2023-05-02T08:51:02;10.30;99.90
15231;DHT22;32569;51.762;8.564;2023-05-02T08:53:32;10.10;99.90
15231;DHT22;32569;51.762;8.564;2023-05-02T08:56:00;10.20;99.90
15231;DHT22;32569;51.762;8.564;2023-05-02T08:58:26;10.30;99.90
15231;DHT22;32569;51.762;8.564;2023-05-02T09:00:58;10.30;99.90
15231;DHT22;32569;51.762;8.564;2023-05-02T09:03:29;10.40;99.90
15231;DHT22;32569;51.762;8.564;2023-05-02T09:06:07;10.40;99.90
15231;DHT22;32569;51.762;8.564;2023-05-02T09:08:36;10.40;99.90
15231;DHT22;32569;51.762;8.564;2023-05-02T09:11:06;10.40;99.90
15231;DHT22;32569;51.762;8.564;2023-05-02T09:13:35;10.20;99.90
15231;DHT22;32569;51.762;8.564;2023-05-02T09:16:04;10.20;99.90
15231;DHT22;32569;51.762;8.564;2023-05-02T09:18:32;10.20;99.90
15231;DHT22;32569;51.762;8.564;2023-05-02T09:21:02;10.20;99.90
15231;DHT22;32569;51.762;8.564;2023-05-02T09:23:40;10.20;99.90
15231;DHT22;32569;51.762;8.564;2023-05-02T09:26:16;10.20;99.90
15231;DHT22;32569;51.762;8.564;2023-05-02T09:28:44;10.20;99.90
15231;DHT22;32569;51.762;8.564;2023-05-02T09:31:13;10.30;99.90
15231;DHT22;32569;51.762;8.564;2023-05-02T09:33:40;10.40;99.90
15231;DHT22;32569;51.762;8.564;2023-05-02T09:36:09;10.40;99.90
15231;DHT22;32569;51.762;8.564;2023-05-02T09:38:38;10.50;99.90
15231;DHT22;32569;51.762;8.564;2023-05-02T09:41:05;10.50;99.90
15231;DHT22;32569;51.762;8.564;2023-05-02T09:43:32;10.50;99.90
15231;DHT22;32569;51.762;8.564;2023-05-02T09:46:00;10.60;99.90
15231;DHT22;32569;51.762;8.564;2023-05-02T09:48:32;10.40;99.90
15231;DHT22;32569;51.762;8.564;2023-05-02T09:51:17;10.60;99.90
15231;DHT22;32569;51.762;8.564;2023-05-02T09:53:45;10.50;99.90
15231;DHT22;32569;51.762;8.564;2023-05-02T09:56:12;10.60;99.90
15231;DHT22;32569;51.762;8.564;2023-05-02T09:58:39;10.50;99.90
15231;DHT22;32569;51.762;8.564;2023-05-02T10:01:10;10.60;99.90
15231;DHT22;32569;51.762;8.564;2023-05-02T10:03:40;10.50;99.90
15231;DHT22;32569;51.762;8.564;2023-05-02T10:06:08;10.40;99.90
15231;DHT22;32569;51.762;8.564;2023-05-02T10:08:34;10.30;99.90
15231;DHT22;32569;51.762;8.564;2023-05-02T10:11:09;10.20;99.90
15231;DHT22;32569;51.762;8.564;2023-05-02T10:13:37;10.20;99.90
15231;DHT22;32569;51.762;8.564;2023-05-02T10:16:08;10.30;99.90
15231;DHT22;32569;51.762;8.564;2023-05-02T10:18:40;10.40;99.90
15231;DHT22;32569;51.762;8.564;2023-05-02T10:21:09;10.50;99.90
15231;DHT22;32569;51.762;8.564;2023-05-02T10:23:40;10.70;99.70
15231;DHT22;32569;51.762;8.564;2023-05-02T10:26:09;10.70;99.50
15231;DHT22;32569;51.762;8.564;2023-05-02T10:28:37;11.10;99.10
15231;DHT22;32569;51.762;8.564;2023-05-02T10:31:05;11.30;99.60
15231;DHT22;32569;51.762;8.564;2023-05-02T10:33:35;11.50;99.00
15231;DHT22;32569;51.762;8.564;2023-05-02T10:36:04;11.60;98.90
15231;DHT22;32569;51.762;8.564;2023-05-02T10:38:33;11.50;98.30
15231;DHT22;32569;51.762;8.564;2023-05-02T10:41:04;11.60;98.60
15231;DHT22;32569;51.762;8.564;2023-05-02T10:43:34;11.20;98.60
15231;DHT22;32569;51.762;8.564;2023-05-02T10:46:02;11.10;98.60
15231;DHT22;32569;51.762;8.564;2023-05-02T10:48:29;10.90;98.80
15231;DHT22;32569;51.762;8.564;2023-05-02T10:50:57;10.80;98.70
15231;DHT22;32569;51.762;8.564;2023-05-02T10:53:28;10.80;98.90
15231;DHT22;32569;51.762;8.564;2023-05-02T10:56:15;10.80;98.70
15231;DHT22;32569;51.762;8.564;2023-05-02T10:58:44;10.90;98.90
15231;DHT22;32569;51.762;8.564;2023-05-02T11:01:35;10.90;98.80
15231;DHT22;32569;51.762;8.564;2023-05-02T11:04:09;10.50;98.60
15231;DHT22;32569;51.762;8.564;2023-05-02T11:09:41;10.40;99.00
15231;DHT22;32569;51.762;8.564;2023-05-02T11:12:08;10.60;99.00
15231;DHT22;32569;51.762;8.564;2023-05-02T11:14:45;10.70;98.50
15231;DHT22;32569;51.762;8.564;2023-05-02T11:17:15;10.50;98.20
15231;DHT22;32569;51.762;8.564;2023-05-02T11:22:53;10.50;98.30
15231;DHT22;32569;51.762;8.564;2023-05-02T11:25:44;10.60;98.30
15231;DHT22;32569;51.762;8.564;2023-05-02T11:28:38;10.70;98.30
15231;DHT22;32569;51.762;8.564;2023-05-02T11:31:07;10.90;98.20
15231;DHT22;32569;51.762;8.564;2023-05-02T11:33:35;10.70;97.90
15231;DHT22;32569;51.762;8.564;2023-05-02T11:36:02;10.70;97.90
15231;DHT22;32569;51.762;8.564;2023-05-02T11:38:35;10.80;97.70
15231;DHT22;32569;51.762;8.564;2023-05-02T11:41:03;10.70;97.50
15231;DHT22;32569;51.762;8.564;2023-05-02T11:43:30;10.60;97.80
15231;DHT22;32569;51.762;8.564;2023-05-02T11:46:00;10.80;98.00
15231;DHT22;32569;51.762;8.564;2023-05-02T11:48:30;10.80;97.70
15231;DHT22;32569;51.762;8.564;2023-05-02T11:50:58;10.90;97.70
15231;DHT22;32569;51.762;8.564;2023-05-02T11:53:30;10.90;97.50
15231;DHT22;32569;51.762;8.564;2023-05-02T11:56:04;11.00;97.40
15231;DHT22;32569;51.762;8.564;2023-05-02T11:58:31;11.00;97.20
15231;DHT22;32569;51.762;8.564;2023-05-02T12:00:59;11.00;97.80
15231;DHT22;32569;51.762;8.564;2023-05-02T12:03:46;11.10;96.70
15231;DHT22;32569;51.762;8.564;2023-05-02T12:06:17;11.00;96.80
15231;DHT22;32569;51.762;8.564;2023-05-02T12:08:44;11.20;96.60
15231;DHT22;32569;51.762;8.564;2023-05-02T12:11:12;11.10;96.80
15231;DHT22;32569;51.762;8.564;2023-05-02T12:13:43;11.30;96.70
15231;DHT22;32569;51.762;8.564;2023-05-02T12:16:11;11.40;96.10
15231;DHT22;32569;51.762;8.564;2023-05-02T12:18:38;11.40;96.00
15231;DHT22;32569;51.762;8.564;2023-05-02T12:21:09;11.50;96.10
15231;DHT22;32569;51.762;8.564;2023-05-02T12:23:36;11.50;96.50
15231;DHT22;32569;51.762;8.564;2023-05-02T12:26:15;11.30;96.10
15231;DHT22;32569;51.762;8.564;2023-05-02T12:28:47;11.60;96.20
15231;DHT22;32569;51.762;8.564;2023-05-02T12:31:14;11.50;95.90
15231;DHT22;32569;51.762;8.564;2023-05-02T12:33:41;11.40;96.50
15231;DHT22;32569;51.762;8.564;2023-05-02T12:36:10;11.60;96.60
15231;DHT22;32569;51.762;8.564;2023-05-02T12:38:47;11.90;95.80
15231;DHT22;32569;51.762;8.564;2023-05-02T12:41:13;12.00;94.90
15231;DHT22;32569;51.762;8.564;2023-05-02T12:43:45;12.00;95.30
15231;DHT22;32569;51.762;8.564;2023-05-02T12:46:12;12.00;95.10
15231;DHT22;32569;51.762;8.564;2023-05-02T12:48:39;11.90;95.00
15231;DHT22;32569;51.762;8.564;2023-05-02T12:51:20;11.40;95.90
15231;DHT22;32569;51.762;8.564;2023-05-02T12:53:47;11.30;96.20
15231;DHT22;32569;51.762;8.564;2023-05-02T12:56:13;11.20;96.40
15231;DHT22;32569;51.762;8.564;2023-05-02T12:58:42;11.20;96.40
15231;DHT22;32569;51.762;8.564;2023-05-02T13:01:09;11.30;96.60
15231;DHT22;32569;51.762;8.564;2023-05-02T13:03:36;11.30;96.30
15231;DHT22;32569;51.762;8.564;2023-05-02T13:06:03;11.20;96.30
15231;DHT22;32569;51.762;8.564;2023-05-02T13:08:32;11.30;95.90
15231;DHT22;32569;51.762;8.564;2023-05-02T13:10:59;11.40;95.90
15231;DHT22;32569;51.762;8.564;2023-05-02T13:13:26;11.60;95.60
15231;DHT22;32569;51.762;8.564;2023-05-02T13:15:52;11.50;94.80
15231;DHT22;32569;51.762;8.564;2023-05-02T13:18:19;11.60;94.80
15231;DHT22;32569;51.762;8.564;2023-05-02T13:20:45;11.60;94.50
15231;DHT22;32569;51.762;8.564;2023-05-02T13:23:12;11.80;94.70
15231;DHT22;32569;51.762;8.564;2023-05-02T13:25:42;12.40;94.20
15231;DHT22;32569;51.762;8.564;2023-05-02T13:28:09;12.40;93.30
15231;DHT22;32569;51.762;8.564;2023-05-02T13:30:35;12.20;93.40
15231;DHT22;32569;51.762;8.564;2023-05-02T13:33:05;12.30;93.10
15231;DHT22;32569;51.762;8.564;2023-05-02T13:35:31;12.30;93.40
15231;DHT22;32569;51.762;8.564;2023-05-02T13:37:58;12.30;93.30
15231;DHT22;32569;51.762;8.564;2023-05-02T13:40:25;12.50;92.70
15231;DHT22;32569;51.762;8.564;2023-05-02T13:42:53;12.30;93.10
15231;DHT22;32569;51.762;8.564;2023-05-02T13:45:22;12.30;92.60
15231;DHT22;32569;51.762;8.564;2023-05-02T13:47:49;12.10;92.10
15231;DHT22;32569;51.762;8.564;2023-05-02T13:50:15;11.90;92.60
15231;DHT22;32569;51.762;8.564;2023-05-02T13:52:42;12.00;93.40
15231;DHT22;32569;51.762;8.564;2023-05-02T13:55:09;11.90;92.30
15231;DHT22;32569;51.762;8.564;2023-05-02T13:57:35;12.00;92.40
15231;DHT22;32569;51.762;8.564;2023-05-02T14:00:05;12.20;92.20
15231;DHT22;32569;51.762;8.564;2023-05-02T14:02:34;12.30;91.80
15231;DHT22;32569;51.762;8.564;2023-05-02T14:05:03;12.50;91.90
15231;DHT22;32569;51.762;8.564;2023-05-02T14:07:30;12.60;91.60
15231;DHT22;32569;51.762;8.564;2023-05-02T14:09:56;12.70;92.10
15231;DHT22;32569;51.762;8.564;2023-05-02T14:12:23;12.70;91.30
15231;DHT22;32569;51.762;8.564;2023-05-02T14:14:50;12.50;90.60
15231;DHT22;32569;51.762;8.564;2023-05-02T14:17:18;12.30;90.50
15231;DHT22;32569;51.762;8.564;2023-05-02T14:19:45;12.20;91.60
15231;DHT22;32569;51.762;8.564;2023-05-02T14:22:12;12.10;91.00
15231;DHT22;32569;51.762;8.564;2023-05-02T14:24:41;12.20;91.30
15231;DHT22;32569;51.762;8.564;2023-05-02T14:27:07;12.10;90.60
15231;DHT22;32569;51.762;8.564;2023-05-02T14:29:37;11.90;91.30
15231;DHT22;32569;51.762;8.564;2023-05-02T14:32:04;12.20;90.70
15231;DHT22;32569;51.762;8.564;2023-05-02T14:34:32;12.50;90.90
15231;DHT22;32569;51.762;8.564;2023-05-02T14:36:58;12.90;90.40
15231;DHT22;32569;51.762;8.564;2023-05-02T14:39:25;13.00;90.00
15231;DHT22;32569;51.762;8.564;2023-05-02T14:41:52;13.00;88.30
15231;DHT22;32569;51.762;8.564;2023-05-02T14:44:18;13.00;88.60
15231;DHT22;32569;51.762;8.564;2023-05-02T14:46:45;12.90;87.90
15231;DHT22;32569;51.762;8.564;2023-05-02T14:49:11;13.00;87.50
15231;DHT22;32569;51.762;8.564;2023-05-02T14:51:39;12.90;87.80
15231;DHT22;32569;51.762;8.564;2023-05-02T14:54:07;12.70;89.40
15231;DHT22;32569;51.762;8.564;2023-05-02T14:56:34;12.50;88.80
15231;DHT22;32569;51.762;8.564;2023-05-02T14:59:00;12.60;89.50
15231;DHT22;32569;51.762;8.564;2023-05-02T15:01:27;12.40;88.50
15231;DHT22;32569;51.762;8.564;2023-05-02T15:03:54;12.30;88.00
15231;DHT22;32569;51.762;8.564;2023-05-02T15:06:21;12.10;87.90
15231;DHT22;32569;51.762;8.564;2023-05-02T15:08:49;11.90;88.70
15231;DHT22;32569;51.762;8.564;2023-05-02T15:11:16;11.90;88.60
15231;DHT22;32569;51.762;8.564;2023-05-02T15:13:42;11.90;89.30
15231;DHT22;32569;51.762;8.564;2023-05-02T15:16:09;11.90;90.00
15231;DHT22;32569;51.762;8.564;2023-05-02T15:18:36;11.70;87.90
15231;DHT22;32569;51.762;8.564;2023-05-02T15:21:03;11.70;89.50
15231;DHT22;32569;51.762;8.564;2023-05-02T15:23:30;11.70;90.40
15231;DHT22;32569;51.762;8.564;2023-05-02T15:25:58;11.60;90.30
15231;DHT22;32569;51.762;8.564;2023-05-02T15:28:24;11.60;90.10
15231;DHT22;32569;51.762;8.564;2023-05-02T15:30:51;11.60;88.90
15231;DHT22;32569;51.762;8.564;2023-05-02T15:33:18;11.60;88.80
15231;DHT22;32569;51.762;8.564;2023-05-02T15:35:51;11.60;89.10
15231;DHT22;32569;51.762;8.564;2023-05-02T15:38:19;11.80;89.50
15231;DHT22;32569;51.762;8.564;2023-05-02T15:40:52;11.90;88.40
15231;DHT22;32569;51.762;8.564;2023-05-02T15:43:21;11.90;87.70
15231;DHT22;32569;51.762;8.564;2023-05-02T15:45:51;11.90;88.10
15231;DHT22;32569;51.762;8.564;2023-05-02T15:48:18;12.10;88.90